createdAt,value
2023-02-15T00:00:25.447Z,35.30
2023-02-15T00:03:00.258Z,41.60
2023-02-15T00:05:30.392Z,36.07
2023-02-15T00:07:59.776Z,41.00
2023-02-15T00:10:29.218Z,38.00
2023-02-15T00:12:58.627Z,39.77
2023-02-15T00:15:28.083Z,37.33
2023-02-15T00:18:00.590Z,39.87
2023-02-15T00:20:30.023Z,36.77
2023-02-15T00:22:59.436Z,40.27
2023-02-15T00:25:28.896Z,39.00
2023-02-15T00:27:58.322Z,39.30
2023-02-15T00:30:27.837Z,49.03
2023-02-15T00:32:59.969Z,42.33
2023-02-15T00:35:29.403Z,49.90
2023-02-15T00:37:59.873Z,40.73
2023-02-15T00:40:29.336Z,40.50
2023-02-15T00:42:59.660Z,50.73
2023-02-15T00:45:29.046Z,43.43
2023-02-15T00:48:01.023Z,41.70
2023-02-15T00:50:30.615Z,42.33
2023-02-15T00:53:00.047Z,39.57
2023-02-15T00:55:29.597Z,40.57
2023-02-15T00:57:59.009Z,48.13
2023-02-15T01:00:28.508Z,44.63
2023-02-15T01:02:57.883Z,40.07
2023-02-15T01:05:30.643Z,41.40
2023-02-15T01:08:00.107Z,44.37
2023-02-15T01:10:30.631Z,40.70
2023-02-15T01:13:00.254Z,39.73
2023-02-15T01:15:29.713Z,41.70
2023-02-15T01:17:59.331Z,42.07
2023-02-15T01:20:32.698Z,38.20
2023-02-15T01:23:02.126Z,36.27
2023-02-15T01:25:31.529Z,41.50
2023-02-15T01:28:01.006Z,36.27
2023-02-15T01:30:30.702Z,38.13
2023-02-15T01:33:01.776Z,35.93
2023-02-15T01:35:33.820Z,36.60
2023-02-15T01:38:03.252Z,36.93
2023-02-15T01:40:32.777Z,36.83
2023-02-15T01:43:02.155Z,43.93
2023-02-15T01:45:33.406Z,38.10
2023-02-15T01:48:06.011Z,40.77
2023-02-15T01:50:40.442Z,41.10
2023-02-15T01:53:12.362Z,35.43
2023-02-15T01:55:43.895Z,36.00
2023-02-15T01:58:13.451Z,43.70
2023-02-15T02:00:42.829Z,35.60
2023-02-15T02:03:12.344Z,36.00
2023-02-15T02:05:44.775Z,44.13
2023-02-15T02:08:14.603Z,35.80
2023-02-15T02:10:44.100Z,35.27
2023-02-15T02:13:13.662Z,34.97
2023-02-15T02:15:47.288Z,50.60
2023-02-15T02:18:25.514Z,37.80
2023-02-15T02:21:27.430Z,36.10
2023-02-15T02:24:10.531Z,36.93
2023-02-15T02:27:01.651Z,35.37
2023-02-15T02:29:44.505Z,35.30
2023-02-15T02:32:42.955Z,37.20
2023-02-15T02:35:20.068Z,35.93
2023-02-15T02:37:54.037Z,33.47
2023-02-15T02:40:28.638Z,35.77
2023-02-15T02:43:01.720Z,35.70
2023-02-15T02:45:35.886Z,36.40
2023-02-15T02:48:08.247Z,35.90
2023-02-15T02:50:43.137Z,34.70
2023-02-15T02:53:13.313Z,35.57
2023-02-15T02:55:45.607Z,36.90
2023-02-15T02:58:18.961Z,38.10
2023-02-15T03:00:51.379Z,48.50
2023-02-15T03:03:25.054Z,34.30
2023-02-15T03:05:59.544Z,34.90
2023-02-15T03:08:33.889Z,35.37
2023-02-15T03:11:04.606Z,34.97
2023-02-15T03:13:34.142Z,35.33
2023-02-15T03:16:17.075Z,40.60
2023-02-15T03:18:53.825Z,34.23
2023-02-15T03:21:29.764Z,34.70
2023-02-15T03:24:04.364Z,35.97
2023-02-15T03:26:34.359Z,36.43
2023-02-15T03:29:04.137Z,37.67
2023-02-15T03:31:36.509Z,33.97
2023-02-15T03:34:08.556Z,35.93
2023-02-15T03:36:45.528Z,36.40
2023-02-15T03:39:21.141Z,36.87
2023-02-15T03:41:56.749Z,37.97
2023-02-15T03:44:31.708Z,37.73
2023-02-15T03:47:06.158Z,39.80
2023-02-15T03:49:40.898Z,37.97
2023-02-15T03:52:14.889Z,37.90
2023-02-15T03:54:47.430Z,34.13
2023-02-15T03:57:35.225Z,37.87
2023-02-15T04:00:19.168Z,33.57
2023-02-15T04:02:56.688Z,33.93
2023-02-15T04:05:26.422Z,36.57
2023-02-15T04:07:58.409Z,39.20
2023-02-15T04:10:40.324Z,30.80
2023-02-15T04:13:09.796Z,34.03
2023-02-15T04:15:51.701Z,33.27
2023-02-15T04:18:21.149Z,33.57
2023-02-15T04:21:03.372Z,33.00
2023-02-15T04:23:48.673Z,39.40
2023-02-15T04:26:18.317Z,33.43
2023-02-15T04:28:47.735Z,30.53
2023-02-15T04:31:17.253Z,35.97
2023-02-15T04:33:46.767Z,32.27
2023-02-15T04:36:16.286Z,31.77
2023-02-15T04:38:48.343Z,34.80
2023-02-15T04:41:17.716Z,31.03
2023-02-15T04:43:47.131Z,32.80
2023-02-15T04:46:16.513Z,30.60
2023-02-15T04:48:45.901Z,30.60
2023-02-15T04:51:15.372Z,28.90
2023-02-15T04:53:44.769Z,29.90
2023-02-15T04:56:16.826Z,28.73
2023-02-15T04:58:46.204Z,31.43
2023-02-15T05:01:15.830Z,31.37
2023-02-15T05:03:45.297Z,31.97
2023-02-15T05:06:14.773Z,29.60
2023-02-15T05:08:44.213Z,31.77
2023-02-15T05:11:16.170Z,29.87
2023-02-15T05:13:45.572Z,30.67
2023-02-15T05:16:15.005Z,29.17
2023-02-15T05:18:44.430Z,28.73
2023-02-15T05:21:14.603Z,29.53
2023-02-15T05:23:44.054Z,30.50
2023-02-15T05:26:29.651Z,30.40
2023-02-15T05:28:59.033Z,30.37
2023-02-15T05:31:28.995Z,30.17
2023-02-15T05:33:58.589Z,32.77
2023-02-15T05:36:29.224Z,30.40
2023-02-15T05:38:58.682Z,28.30
2023-02-15T05:41:30.730Z,29.20
2023-02-15T05:44:00.139Z,33.27
2023-02-15T05:46:29.611Z,29.07
2023-02-15T05:48:59.086Z,27.40
2023-02-15T05:51:28.577Z,25.00
2023-02-15T05:53:58.024Z,32.03
2023-02-15T05:56:30.127Z,27.87
2023-02-15T05:58:59.502Z,28.60
2023-02-15T06:01:28.950Z,30.90
2023-02-15T06:03:58.432Z,32.37
2023-02-15T06:06:27.840Z,32.70
2023-02-15T06:08:57.244Z,32.30
2023-02-15T06:11:26.607Z,30.23
2023-02-15T06:13:58.594Z,29.40
2023-02-15T06:16:27.991Z,27.50
2023-02-15T06:18:57.540Z,28.27
2023-02-15T06:21:27.031Z,25.37
2023-02-15T06:23:56.427Z,28.77
2023-02-15T06:26:26.044Z,28.07
2023-02-15T06:28:58.069Z,27.10
2023-02-15T06:31:27.569Z,25.43
2023-02-15T06:34:01.842Z,30.17
2023-02-15T06:36:31.581Z,27.63
2023-02-15T06:39:01.373Z,29.97
2023-02-15T06:41:30.861Z,33.20
2023-02-15T06:44:03.244Z,32.90
2023-02-15T06:46:32.662Z,31.27
2023-02-15T06:49:02.061Z,29.47
2023-02-15T06:51:31.436Z,29.70
2023-02-15T06:54:00.890Z,32.80
2023-02-15T06:56:30.387Z,31.37
2023-02-15T06:58:59.904Z,29.60
2023-02-15T07:01:32.316Z,29.83
2023-02-15T07:04:01.745Z,29.27
2023-02-15T07:06:34.780Z,31.40
2023-02-15T07:09:05.173Z,28.50
2023-02-15T07:11:55.909Z,30.17
2023-02-15T07:14:27.158Z,28.83
2023-02-15T07:17:00.681Z,28.87
2023-02-15T07:19:30.219Z,27.57
2023-02-15T07:22:01.587Z,27.30
2023-02-15T07:24:31.036Z,27.10
2023-02-15T07:27:00.642Z,27.80
2023-02-15T07:29:30.328Z,29.70
2023-02-15T07:32:02.361Z,27.27
2023-02-15T07:34:31.883Z,27.63
2023-02-15T07:37:01.607Z,31.73
2023-02-15T07:39:31.011Z,25.10
2023-02-15T07:42:00.692Z,27.43
2023-02-15T07:44:30.074Z,40.20
2023-02-15T07:47:02.078Z,28.73
2023-02-15T07:49:31.711Z,41.30
2023-02-15T07:52:01.189Z,32.40
2023-02-15T07:54:30.624Z,32.13
2023-02-15T07:57:00.092Z,27.43
2023-02-15T07:59:29.578Z,27.67
2023-02-15T08:01:59.349Z,28.70
2023-02-15T08:04:32.185Z,27.63
2023-02-15T08:07:01.569Z,27.33
2023-02-15T08:09:30.989Z,27.77
2023-02-15T08:12:00.353Z,27.77
2023-02-15T08:14:31.303Z,25.80
2023-02-15T08:17:06.000Z,27.80
2023-02-15T08:19:38.300Z,27.10
2023-02-15T08:22:09.339Z,28.17
2023-02-15T08:24:40.341Z,28.10
2023-02-15T08:27:11.333Z,29.30
2023-02-15T08:29:43.187Z,26.87
2023-02-15T08:32:14.049Z,27.63
2023-02-15T08:34:46.358Z,29.20
2023-02-15T08:37:15.780Z,28.73
2023-02-15T08:39:46.964Z,27.60
2023-02-15T08:42:16.399Z,29.10
2023-02-15T08:44:45.859Z,27.37
2023-02-15T08:47:15.270Z,29.80
2023-02-15T08:49:47.234Z,28.53
2023-02-15T08:52:16.854Z,28.70
2023-02-15T08:54:46.317Z,29.40
2023-02-15T08:57:15.759Z,29.77
2023-02-15T08:59:45.220Z,29.13
2023-02-15T09:02:14.789Z,27.80
2023-02-15T09:04:46.801Z,26.23
2023-02-15T09:07:16.234Z,30.10
2023-02-15T09:09:46.436Z,28.67
2023-02-15T09:12:15.876Z,28.10
2023-02-15T09:14:45.304Z,27.63
2023-02-15T09:17:16.097Z,31.53
2023-02-15T09:19:48.179Z,30.77
2023-02-15T09:22:17.608Z,31.70
2023-02-15T09:24:47.164Z,29.37
2023-02-15T09:27:16.684Z,29.50
2023-02-15T09:29:46.153Z,31.27
2023-02-15T09:32:18.600Z,27.47
2023-02-15T09:34:50.631Z,34.40
2023-02-15T09:37:20.054Z,28.90
2023-02-15T09:39:50.608Z,31.17
2023-02-15T09:42:34.558Z,28.90
2023-02-15T09:45:23.786Z,31.03
2023-02-15T09:48:11.194Z,36.03
2023-02-15T09:50:54.380Z,32.03
2023-02-15T09:53:33.763Z,32.40
2023-02-15T09:56:07.533Z,29.97
2023-02-15T09:58:44.454Z,31.00
2023-02-15T10:01:20.512Z,33.20
2023-02-15T10:04:00.901Z,31.77
2023-02-15T10:06:43.081Z,30.33
2023-02-15T10:09:31.874Z,37.13
2023-02-15T10:12:12.735Z,36.67
2023-02-15T10:15:00.166Z,40.63
2023-02-15T10:17:41.083Z,42.87
2023-02-15T10:20:19.052Z,50.33
2023-02-15T10:23:05.064Z,56.20
2023-02-15T10:25:41.596Z,32.13
2023-02-15T10:28:17.387Z,34.20
2023-02-15T10:30:51.547Z,37.40
2023-02-15T10:33:35.138Z,33.93
2023-02-15T10:36:13.549Z,34.73
2023-02-15T10:38:46.848Z,34.33
2023-02-15T10:41:26.936Z,35.23
2023-02-15T10:44:07.727Z,34.33
2023-02-15T10:46:55.219Z,36.57
2023-02-15T10:49:50.372Z,37.23
2023-02-15T10:52:31.568Z,35.97
2023-02-15T10:55:10.686Z,33.50
2023-02-15T10:57:48.951Z,33.53
2023-02-15T11:00:23.412Z,34.60
2023-02-15T11:03:06.662Z,31.50
2023-02-15T11:05:43.450Z,31.70
2023-02-15T11:08:14.148Z,32.80
2023-02-15T11:10:48.467Z,33.47
2023-02-15T11:13:20.702Z,35.70
2023-02-15T11:15:53.310Z,32.50
2023-02-15T11:18:27.697Z,36.23
2023-02-15T11:20:59.834Z,35.10
2023-02-15T11:23:30.295Z,35.93
2023-02-15T11:26:05.775Z,35.47
2023-02-15T11:28:38.494Z,36.70
2023-02-15T11:31:17.308Z,36.43
2023-02-15T11:33:50.462Z,38.00
2023-02-15T11:36:23.034Z,37.97
2023-02-15T11:38:56.085Z,35.80
2023-02-15T11:41:32.661Z,35.40
2023-02-15T11:44:04.663Z,35.40
2023-02-15T11:46:34.143Z,40.23
2023-02-15T11:49:04.005Z,37.37
2023-02-15T11:51:33.669Z,36.83
2023-02-15T11:54:03.344Z,39.67
2023-02-15T11:56:36.905Z,38.40
2023-02-15T11:59:10.063Z,37.63
2023-02-15T12:01:41.892Z,39.80
2023-02-15T12:04:17.204Z,36.80
2023-02-15T12:06:49.586Z,37.43
2023-02-15T12:09:23.740Z,36.63
2023-02-15T12:11:55.853Z,37.83
2023-02-15T12:14:25.288Z,37.03
2023-02-15T12:16:57.261Z,34.70
2023-02-15T12:19:33.867Z,36.20
2023-02-15T12:22:05.221Z,36.73
2023-02-15T12:24:36.988Z,37.20
2023-02-15T12:27:15.828Z,38.17
2023-02-15T12:29:46.754Z,35.97
2023-02-15T12:32:21.988Z,38.77
2023-02-15T12:34:51.643Z,37.03
2023-02-15T12:37:23.645Z,39.27
2023-02-15T12:39:58.516Z,35.30
2023-02-15T12:42:33.082Z,34.40
2023-02-15T12:45:04.891Z,35.93
2023-02-15T12:47:35.093Z,34.80
2023-02-15T12:50:18.005Z,34.87
2023-02-15T12:52:48.752Z,33.87
2023-02-15T12:55:24.480Z,31.17
2023-02-15T12:58:09.345Z,30.83
2023-02-15T13:00:38.791Z,30.37
2023-02-15T13:03:08.425Z,33.37
2023-02-15T13:05:42.085Z,31.37
2023-02-15T13:08:15.252Z,29.63
2023-02-15T13:10:46.959Z,31.97
2023-02-15T13:13:24.294Z,32.50
2023-02-15T13:15:55.485Z,30.07
2023-02-15T13:18:32.630Z,30.93
2023-02-15T13:21:07.995Z,32.27
2023-02-15T13:23:37.708Z,31.77
2023-02-15T13:26:09.138Z,31.47
2023-02-15T13:28:43.264Z,31.67
2023-02-15T13:31:17.078Z,30.23
2023-02-15T13:33:49.122Z,32.23
2023-02-15T13:36:24.159Z,31.30
2023-02-15T13:39:03.084Z,29.97
2023-02-15T13:41:36.979Z,31.17
2023-02-15T13:44:21.229Z,32.43
2023-02-15T13:47:03.882Z,37.70
2023-02-15T13:49:43.834Z,30.00
2023-02-15T13:52:23.123Z,33.40
2023-02-15T13:55:10.828Z,31.90
2023-02-15T13:57:51.990Z,32.83
2023-02-15T14:00:27.072Z,32.77
2023-02-15T14:03:10.708Z,32.03
2023-02-15T14:06:09.888Z,30.63
2023-02-15T14:08:49.467Z,30.47
2023-02-15T14:11:24.896Z,29.57
2023-02-15T14:14:18.791Z,31.70
2023-02-15T14:17:06.730Z,30.17
2023-02-15T14:19:39.815Z,31.43
2023-02-15T14:22:15.414Z,30.80
2023-02-15T14:24:47.384Z,30.33
2023-02-15T14:27:25.886Z,32.43
2023-02-15T14:29:57.850Z,33.53
2023-02-15T14:32:34.815Z,36.53
2023-02-15T14:35:05.115Z,34.63
2023-02-15T14:37:49.610Z,38.67
2023-02-15T14:40:39.380Z,38.73
2023-02-15T14:43:13.589Z,41.70
2023-02-15T14:45:46.713Z,38.57
2023-02-15T14:48:26.968Z,37.47
2023-02-15T14:50:56.548Z,35.50
2023-02-15T14:53:43.050Z,35.27
2023-02-15T14:56:25.816Z,32.07
2023-02-15T14:59:22.935Z,31.30
2023-02-15T15:02:02.282Z,31.57
2023-02-15T15:04:38.504Z,29.90
2023-02-15T15:07:16.460Z,31.53
2023-02-15T15:09:47.243Z,30.13
2023-02-15T15:12:32.925Z,29.80
2023-02-15T15:15:02.446Z,28.50
2023-02-15T15:18:00.192Z,29.60
2023-02-15T15:20:50.290Z,46.50
2023-02-15T15:23:43.188Z,44.80
2023-02-15T15:26:30.649Z,74.00
2023-02-15T15:29:02.415Z,60.93
2023-02-15T15:31:47.670Z,36.60
2023-02-15T15:34:24.732Z,38.53
2023-02-15T15:37:14.635Z,33.93
2023-02-15T15:40:19.169Z,32.43
2023-02-15T15:42:54.944Z,40.40
2023-02-15T15:45:45.038Z,35.43
2023-02-15T15:48:43.222Z,35.10
2023-02-15T15:51:16.553Z,35.13
2023-02-15T15:53:51.418Z,31.47
2023-02-15T15:56:23.014Z,34.77
2023-02-15T15:58:55.469Z,33.93
2023-02-15T16:01:32.448Z,34.47
2023-02-15T16:04:03.145Z,29.07
2023-02-15T16:06:37.892Z,29.17
2023-02-15T16:09:21.456Z,25.87
2023-02-15T16:11:52.278Z,27.50
2023-02-15T16:14:28.869Z,27.30
2023-02-15T16:16:59.573Z,30.50
2023-02-15T16:19:31.884Z,27.20
2023-02-15T16:22:02.786Z,23.73
2023-02-15T16:24:59.031Z,25.90
2023-02-15T16:27:49.323Z,25.67
2023-02-15T16:30:25.453Z,24.73
2023-02-15T16:32:57.167Z,24.70
2023-02-15T16:35:27.163Z,24.07
2023-02-15T16:37:56.575Z,25.10
2023-02-15T16:40:58.246Z,26.27
2023-02-15T16:43:30.238Z,24.90
2023-02-15T16:46:07.235Z,25.97
2023-02-15T16:48:39.061Z,26.77
2023-02-15T16:51:08.608Z,42.10
2023-02-15T16:53:38.271Z,32.73
2023-02-15T16:56:10.607Z,25.23
2023-02-15T16:58:43.834Z,38.03
2023-02-15T17:01:15.696Z,24.17
2023-02-15T17:03:46.126Z,26.40
2023-02-15T17:06:24.013Z,42.63
2023-02-15T17:08:53.463Z,40.40
2023-02-15T17:11:26.250Z,28.80
2023-02-15T17:14:19.019Z,27.47
2023-02-15T17:16:50.522Z,26.63
2023-02-15T17:19:23.778Z,27.60
2023-02-15T17:21:55.531Z,37.90
2023-02-15T17:24:34.961Z,32.57
2023-02-15T17:27:14.284Z,28.60
2023-02-15T17:29:44.728Z,27.80
2023-02-15T17:32:20.330Z,31.13
2023-02-15T17:35:05.141Z,28.07
2023-02-15T17:37:46.115Z,27.80
2023-02-15T17:40:24.012Z,26.67
2023-02-15T17:42:56.061Z,24.90
2023-02-15T17:45:26.470Z,25.40
2023-02-15T17:47:58.153Z,26.27
2023-02-15T17:50:29.240Z,27.33
2023-02-15T17:53:01.437Z,27.60
2023-02-15T17:55:43.635Z,26.63
2023-02-15T17:58:17.004Z,24.57
2023-02-15T18:01:01.310Z,26.03
2023-02-15T18:03:52.471Z,25.27
2023-02-15T18:06:34.484Z,25.83
2023-02-15T18:09:16.341Z,24.33
2023-02-15T18:11:48.735Z,24.30
2023-02-15T18:14:20.760Z,25.13
2023-02-15T18:16:50.268Z,25.30
2023-02-15T18:19:24.340Z,26.87
2023-02-15T18:21:57.665Z,26.80
2023-02-15T18:24:28.700Z,30.03
2023-02-15T18:26:58.392Z,29.33
2023-02-15T18:29:30.412Z,28.57
2023-02-15T18:32:00.374Z,29.00
2023-02-15T18:34:32.698Z,26.90
2023-02-15T18:37:03.455Z,29.90
2023-02-15T18:39:37.588Z,29.00
2023-02-15T18:42:07.712Z,28.90
2023-02-15T18:44:39.688Z,61.87
2023-02-15T18:47:09.139Z,59.67
2023-02-15T18:49:38.581Z,49.30
2023-02-15T18:52:08.278Z,34.73
2023-02-15T18:54:37.710Z,28.80
2023-02-15T18:57:07.141Z,29.17
2023-02-15T18:59:39.161Z,29.90
2023-02-15T19:02:14.843Z,40.53
2023-02-15T19:04:44.545Z,35.20
2023-02-15T19:07:19.589Z,34.60
2023-02-15T19:09:51.043Z,36.70
2023-02-15T19:12:20.644Z,27.20
2023-02-15T19:14:53.780Z,26.90
2023-02-15T19:17:24.249Z,28.70
2023-02-15T19:19:54.927Z,29.10
2023-02-15T19:22:28.311Z,28.30
2023-02-15T19:24:59.735Z,26.87
2023-02-15T19:27:31.924Z,27.17
2023-02-15T19:30:05.711Z,27.40
2023-02-15T19:32:35.220Z,25.70
2023-02-15T19:35:05.136Z,28.03
2023-02-15T19:37:37.928Z,28.10
2023-02-15T19:40:08.581Z,27.63
2023-02-15T19:42:37.978Z,29.03
2023-02-15T19:45:16.400Z,30.50
2023-02-15T19:47:48.109Z,27.33
2023-02-15T19:50:18.663Z,26.17
2023-02-15T19:52:49.041Z,29.97
2023-02-15T19:55:27.593Z,27.37
2023-02-15T19:57:58.063Z,26.93
2023-02-15T20:00:31.586Z,26.57
2023-02-15T20:03:01.854Z,27.90
2023-02-15T20:05:34.218Z,26.07
2023-02-15T20:08:04.447Z,27.63
2023-02-15T20:10:34.866Z,26.50
2023-02-15T20:13:04.763Z,25.67
2023-02-15T20:15:37.855Z,27.90
2023-02-15T20:18:07.597Z,27.03
2023-02-15T20:20:42.537Z,27.43
2023-02-15T20:23:20.809Z,28.33
2023-02-15T20:25:50.887Z,27.00
2023-02-15T20:28:21.882Z,27.60
2023-02-15T20:30:54.262Z,29.40
2023-02-15T20:33:24.252Z,27.17
2023-02-15T20:35:54.247Z,29.40
2023-02-15T20:38:26.575Z,29.43
2023-02-15T20:41:09.193Z,29.70
2023-02-15T20:43:38.576Z,30.97
2023-02-15T20:46:10.937Z,28.63
2023-02-15T20:48:40.655Z,27.57
2023-02-15T20:51:14.714Z,28.57
2023-02-15T20:53:44.261Z,28.13
2023-02-15T20:56:18.435Z,28.10
2023-02-15T20:58:47.901Z,26.43
2023-02-15T21:01:20.543Z,29.17
2023-02-15T21:03:50.219Z,30.63
2023-02-15T21:06:20.506Z,27.67
2023-02-15T21:08:49.889Z,28.27
2023-02-15T21:11:21.253Z,27.23
2023-02-15T21:13:51.139Z,26.83
2023-02-15T21:16:23.243Z,27.03
2023-02-15T21:18:52.690Z,27.03
2023-02-15T21:21:25.628Z,27.37
2023-02-15T21:23:55.769Z,27.17
2023-02-15T21:26:25.833Z,27.17
2023-02-15T21:28:56.762Z,25.77
2023-02-15T21:31:29.425Z,27.07
2023-02-15T21:33:58.933Z,28.97
2023-02-15T21:36:28.428Z,27.23
2023-02-15T21:38:57.923Z,27.63
2023-02-15T21:41:40.207Z,26.73
2023-02-15T21:44:30.779Z,28.80
2023-02-15T21:47:15.530Z,25.30
2023-02-15T21:49:44.946Z,26.90
2023-02-15T21:52:12.895Z,27.70
2023-02-15T21:54:43.070Z,27.67
2023-02-15T21:57:16.715Z,28.50
2023-02-15T21:59:47.210Z,27.30
2023-02-15T22:02:30.184Z,28.17
2023-02-15T22:05:00.011Z,27.87
2023-02-15T22:07:29.463Z,26.77
2023-02-15T22:09:58.830Z,28.60
2023-02-15T22:12:28.291Z,29.10
2023-02-15T22:14:57.697Z,26.03
2023-02-15T22:17:30.172Z,27.60
2023-02-15T22:20:00.555Z,27.23
2023-02-15T22:22:30.912Z,27.77
2023-02-15T22:25:00.297Z,27.07
2023-02-15T22:27:31.634Z,26.03
2023-02-15T22:30:01.104Z,29.50
2023-02-15T22:32:33.261Z,25.83
2023-02-15T22:35:02.722Z,24.63
2023-02-15T22:37:35.233Z,27.00
2023-02-15T22:40:04.635Z,24.50
2023-02-15T22:42:34.051Z,26.80
2023-02-15T22:45:03.486Z,25.77
2023-02-15T22:47:35.874Z,25.27
2023-02-15T22:50:05.299Z,25.90
2023-02-15T22:52:34.748Z,26.70
2023-02-15T22:55:04.182Z,24.90
2023-02-15T22:57:34.953Z,24.67
2023-02-15T23:00:04.979Z,26.37
2023-02-15T23:02:36.984Z,25.67
2023-02-15T23:05:06.563Z,25.97
2023-02-15T23:07:36.003Z,26.50
2023-02-15T23:10:05.416Z,26.20
2023-02-15T23:12:56.247Z,26.67
2023-02-15T23:15:25.790Z,24.07
2023-02-15T23:17:57.752Z,25.77
2023-02-15T23:20:28.461Z,25.40
2023-02-15T23:22:57.892Z,26.63
2023-02-15T23:25:28.072Z,26.30
2023-02-15T23:28:00.420Z,27.07
2023-02-15T23:30:30.282Z,25.90
2023-02-15T23:33:02.303Z,26.57
2023-02-15T23:35:31.820Z,24.57
2023-02-15T23:38:01.248Z,26.90
2023-02-15T23:40:58.011Z,25.30
2023-02-15T23:43:27.405Z,26.40
2023-02-15T23:45:56.891Z,24.20
2023-02-15T23:48:33.514Z,24.20
2023-02-15T23:51:03.732Z,25.77
2023-02-15T23:53:33.478Z,25.10
2023-02-15T23:56:03.377Z,24.03
2023-02-15T23:58:40.306Z,23.50
